Time;durP1;ratioP1;P1;durP2;ratioP2;P2;SDS_P1;SDS_P2;PMS_P1;PMS_P2;Temp;Humidity;BMP_temperature;BMP_pressure;BME280_temperature;BME280_humidity;BME280_pressure;Samples;Min_cycle;Max_cycle;Signal;HPM_P1;HPM_P2
2023/07/07 00:00:20;;;;;;;3.40;3.10;;;19.10;93.60;;;;;;4994677;28;20491;-69
2023/07/07 00:02:46;;;;;;;5.00;3.57;;;19.10;93.90;;;;;;4994261;28;20169;-70
2023/07/07 00:05:11;;;;;;;3.47;3.07;;;19.10;93.90;;;;;;4994277;28;20165;-71
2023/07/07 00:07:37;;;;;;;5.70;3.77;;;19.00;93.80;;;;;;4994439;28;20196;-71
2023/07/07 00:10:03;;;;;;;5.50;3.63;;;19.10;94.20;;;;;;4993928;28;20291;-71
2023/07/07 00:12:30;;;;;;;4.00;3.60;;;19.10;94.20;;;;;;4994100;28;20227;-68
2023/07/07 00:14:55;;;;;;;4.57;3.50;;;19.00;94.20;;;;;;4994350;28;20188;-71
2023/07/07 00:17:21;;;;;;;4.33;3.67;;;18.90;94.50;;;;;;4994008;28;20443;-71
2023/07/07 00:19:47;;;;;;;3.43;3.10;;;18.80;94.70;;;;;;4993992;28;20189;-70
2023/07/07 00:22:12;;;;;;;4.07;3.17;;;18.90;94.70;;;;;;4993976;28;20164;-69
2023/07/07 00:24:38;;;;;;;3.60;3.13;;;18.80;94.70;;;;;;4993766;28;20176;-69
2023/07/07 00:27:05;;;;;;;6.80;3.67;;;18.80;94.90;;;;;;4976030;28;20554;-70
2023/07/07 00:29:30;;;;;;;4.23;3.57;;;18.70;95.00;;;;;;4993781;28;20404;-70
2023/07/07 00:31:57;;;;;;;6.80;3.80;;;18.70;95.20;;;;;;4994038;28;20759;-70
2023/07/07 00:34:22;;;;;;;3.40;3.10;;;18.60;95.60;;;;;;4993807;28;20165;-71
2023/07/07 00:36:48;;;;;;;5.23;3.67;;;18.50;95.40;;;;;;4994238;28;20958;-71
2023/07/07 00:39:13;;;;;;;3.87;3.50;;;18.50;95.70;;;;;;4993288;28;20172;-70
2023/07/07 00:41:39;;;;;;;3.43;3.07;;;18.60;95.80;;;;;;4993673;28;20193;-70
2023/07/07 00:44:07;;;;;;;5.43;3.10;;;18.60;95.90;;;;;;4993683;28;20167;-71
2023/07/07 00:46:34;;;;;;;4.40;3.70;;;18.60;95.90;;;;;;4993634;28;20415;-70
2023/07/07 00:49:03;;;;;;;4.93;3.90;;;18.50;96.10;;;;;;4993893;28;20455;-70
2023/07/07 00:51:37;;;;;;;4.67;3.27;;;18.50;96.20;;;;;;4993589;28;20436;-70
2023/07/07 00:54:11;;;;;;;5.33;3.53;;;18.50;96.30;;;;;;4993327;28;20399;-70
2023/07/07 00:56:39;;;;;;;4.63;4.20;;;18.40;96.40;;;;;;4993610;28;20435;-70
2023/07/07 00:59:10;;;;;;;4.63;3.77;;;18.40;96.70;;;;;;4993051;28;20906;-70
2023/07/07 01:01:37;;;;;;;3.53;3.20;;;18.40;96.80;;;;;;4993615;28;20882;-70
2023/07/07 01:04:08;;;;;;;4.63;3.63;;;18.40;97.10;;;;;;4993605;28;20407;-70
2023/07/07 01:06:40;;;;;;;4.00;3.60;;;18.30;97.30;;;;;;4997064;28;20795;-69
2023/07/07 01:09:08;;;;;;;4.50;3.33;;;18.20;97.60;;;;;;4997466;28;20424;-70
2023/07/07 01:11:35;;;;;;;5.50;3.47;;;18.30;97.80;;;;;;4997429;28;20913;-69
2023/07/07 01:14:04;;;;;;;4.40;3.83;;;18.30;97.80;;;;;;4997900;28;20412;-70
2023/07/07 01:16:44;;;;;;;5.70;3.57;;;18.20;98.00;;;;;;4997350;28;20415;-71
2023/07/07 01:19:27;;;;;;;4.47;3.37;;;18.30;98.20;;;;;;4979963;28;20470;-70
2023/07/07 01:22:11;;;;;;;4.80;3.27;;;18.30;98.30;;;;;;4998137;28;20876;-70
2023/07/07 01:24:58;;;;;;;4.43;3.50;;;18.30;98.30;;;;;;4996830;28;20779;-70
2023/07/07 01:27:46;;;;;;;4.90;3.63;;;18.30;98.30;;;;;;4997277;28;20929;-70
2023/07/07 01:30:34;;;;;;;7.00;3.73;;;18.30;98.80;;;;;;4997585;28;20451;-70
2023/07/07 01:33:09;;;;;;;3.60;3.30;;;18.30;98.80;;;;;;4997013;28;20427;-70
2023/07/07 01:35:34;;;;;;;4.43;4.03;;;18.30;98.90;;;;;;4997172;28;20396;-70
2023/07/07 01:38:02;;;;;;;5.80;3.47;;;18.30;99.10;;;;;;4996941;28;20411;-70
2023/07/07 01:40:43;;;;;;;4.00;2.97;;;18.20;99.30;;;;;;4996410;28;20196;-70
2023/07/07 01:43:28;;;;;;;4.90;4.40;;;18.20;99.20;;;;;;4997238;28;20395;-70
2023/07/07 01:46:02;;;;;;;4.80;3.60;;;18.20;99.50;;;;;;4997272;28;20396;-70
2023/07/07 01:48:32;;;;;;;5.00;3.90;;;18.10;99.60;;;;;;4996759;28;20445;-70
2023/07/07 01:51:01;;;;;;;4.80;4.20;;;18.00;99.90;;;;;;4996974;28;20446;-70
2023/07/07 01:53:30;;;;;;;6.30;4.00;;;18.00;99.90;;;;;;4996781;28;20411;-70
2023/07/07 01:55:59;;;;;;;7.93;4.37;;;17.90;99.90;;;;;;4996458;28;20511;-70
2023/07/07 01:58:27;;;;;;;5.00;3.70;;;17.90;99.90;;;;;;4996904;28;20411;-70
2023/07/07 02:00:55;;;;;;;5.13;3.50;;;17.90;99.90;;;;;;4996436;28;20832;-70
2023/07/07 02:03:22;;;;;;;8.43;4.20;;;17.80;99.90;;;;;;4996839;28;20504;-70
2023/07/07 02:05:48;;;;;;;5.43;4.20;;;17.80;99.90;;;;;;4996746;28;20498;-70
2023/07/07 02:08:15;;;;;;;5.00;3.83;;;17.80;99.90;;;;;;4995955;28;20479;-69
2023/07/07 02:10:41;;;;;;;4.30;3.87;;;17.80;99.90;;;;;;4995948;28;20476;-70
2023/07/07 02:13:07;;;;;;;4.13;3.73;;;17.80;99.90;;;;;;4996802;28;20473;-70
2023/07/07 02:15:32;;;;;;;4.33;3.93;;;17.70;99.90;;;;;;4995897;28;20506;-70
2023/07/07 02:17:58;;;;;;;5.97;4.20;;;17.60;99.90;;;;;;4995901;28;20177;-70
2023/07/07 02:20:23;;;;;;;4.50;4.10;;;17.60;99.90;;;;;;4996436;28;20197;-70
2023/07/07 02:22:49;;;;;;;4.23;3.83;;;17.60;99.90;;;;;;4996188;28;20172;-70
2023/07/07 02:25:15;;;;;;;4.70;3.87;;;17.70;99.90;;;;;;4995756;28;20247;-70
2023/07/07 02:27:40;;;;;;;4.07;3.70;;;17.50;99.90;;;;;;4996080;28;20239;-71
2023/07/07 02:30:07;;;;;;;4.10;3.50;;;17.50;99.90;;;;;;4996368;28;20193;-70
2023/07/07 02:32:32;;;;;;;5.10;4.07;;;17.60;99.90;;;;;;4996035;28;20172;-70
2023/07/07 02:35:00;;;;;;;4.37;3.97;;;17.60;99.90;;;;;;4996358;28;20404;-70
2023/07/07 02:37:26;;;;;;;6.37;4.57;;;17.70;99.90;;;;;;4996086;28;20256;-70
2023/07/07 02:39:51;;;;;;;5.57;4.50;;;17.60;99.90;;;;;;4995507;28;20502;-70
2023/07/07 02:42:17;;;;;;;5.00;4.50;;;17.50;99.90;;;;;;4996133;28;20642;-70
2023/07/07 02:44:42;;;;;;;6.17;4.50;;;17.50;99.90;;;;;;4996304;28;20173;-70
2023/07/07 02:47:09;;;;;;;4.40;3.87;;;17.40;99.90;;;;;;4995850;28;20685;-70
2023/07/07 02:49:35;;;;;;;4.70;3.83;;;17.40;99.90;;;;;;4996456;28;20260;-70
2023/07/07 02:52:00;;;;;;;4.73;4.23;;;17.30;99.90;;;;;;4996136;28;20902;-70
2023/07/07 02:54:26;;;;;;;4.73;4.23;;;17.10;99.90;;;;;;4995047;28;20175;-70
2023/07/07 02:56:53;;;;;;;4.40;4.00;;;17.10;99.90;;;;;;4995809;28;20173;-70
2023/07/07 02:59:18;;;;;;;5.33;4.47;;;17.10;99.90;;;;;;4978157;28;20417;-70
2023/07/07 03:01:44;;;;;;;4.43;3.37;;;17.20;99.90;;;;;;4995055;28;20471;-70
2023/07/07 03:04:11;;;;;;;6.50;4.63;;;17.20;99.90;;;;;;4996082;28;20177;-70
2023/07/07 03:06:37;;;;;;;5.97;3.47;;;17.10;99.90;;;;;;4995642;28;20277;-70
2023/07/07 03:09:03;;;;;;;5.50;4.63;;;17.10;99.90;;;;;;4994307;28;20848;-70
2023/07/07 03:11:29;;;;;;;6.90;4.60;;;17.10;99.90;;;;;;4995402;28;20419;-70
2023/07/07 03:13:55;;;;;;;4.77;4.17;;;17.10;99.90;;;;;;4995585;28;20470;-70
2023/07/07 03:16:24;;;;;;;4.17;3.87;;;17.10;99.90;;;;;;4995118;28;20706;-70
2023/07/07 03:18:55;;;;;;;4.50;4.10;;;17.10;99.90;;;;;;4995127;28;20408;-70
2023/07/07 03:21:22;;;;;;;5.50;4.70;;;17.10;99.90;;;;;;4995219;28;20776;-69
2023/07/07 03:23:51;;;;;;;4.97;4.20;;;17.00;99.90;;;;;;4994633;28;20486;-70
2023/07/07 03:26:18;;;;;;;7.57;4.00;;;17.00;99.90;;;;;;4995055;28;20412;-70
2023/07/07 03:28:44;;;;;;;6.73;4.60;;;17.10;99.90;;;;;;4994312;28;20459;-70
2023/07/07 03:31:12;;;;;;;4.63;3.97;;;17.10;99.90;;;;;;4994876;28;20857;-70
2023/07/07 03:33:39;;;;;;;4.77;4.10;;;17.10;99.90;;;;;;4995397;28;20404;-70
2023/07/07 03:36:05;;;;;;;4.90;4.33;;;17.10;99.90;;;;;;4995455;28;20887;-70
2023/07/07 03:38:31;;;;;;;5.23;4.13;;;17.10;99.90;;;;;;4994861;28;20478;-70
2023/07/07 03:40:56;;;;;;;4.53;3.97;;;17.00;99.90;;;;;;4994580;28;20193;-70
2023/07/07 03:43:22;;;;;;;4.10;3.70;;;17.00;99.90;;;;;;4995046;28;20595;-70
2023/07/07 03:45:48;;;;;;;4.93;3.67;;;17.00;99.90;;;;;;4995302;28;20184;-70
2023/07/07 03:48:13;;;;;;;5.30;4.27;;;17.00;99.90;;;;;;4995927;28;20200;-69
2023/07/07 03:50:39;;;;;;;4.73;3.80;;;17.00;99.90;;;;;;4995117;28;20246;-70
2023/07/07 03:53:05;;;;;;;3.70;3.40;;;17.00;99.90;;;;;;4994834;28;20165;-70
2023/07/07 03:55:30;;;;;;;4.53;3.83;;;17.00;99.90;;;;;;4994737;28;20575;-70
2023/07/07 03:57:58;;;;;;;4.57;3.90;;;17.00;99.90;;;;;;4995139;28;20690;-70
2023/07/07 04:00:24;;;;;;;3.90;3.53;;;16.90;99.90;;;;;;4977111;28;20261;-70
2023/07/07 04:02:49;;;;;;;5.53;4.27;;;17.00;99.90;;;;;;4994731;28;20494;-70
2023/07/07 04:05:15;;;;;;;4.60;4.20;;;17.00;99.90;;;;;;4994913;28;20570;-70
2023/07/07 04:07:40;;;;;;;4.43;4.03;;;17.00;99.90;;;;;;4994780;28;20593;-70
2023/07/07 04:10:08;;;;;;;3.90;3.50;;;17.00;99.90;;;;;;4994320;28;20706;-69
2023/07/07 04:12:33;;;;;;;4.83;4.10;;;17.00;99.90;;;;;;4994648;28;20662;-69
2023/07/07 04:14:59;;;;;;;4.97;4.23;;;17.00;99.90;;;;;;4994444;28;20412;-70
2023/07/07 04:17:26;;;;;;;6.77;3.77;;;16.90;99.90;;;;;;4994715;28;20200;-70
2023/07/07 04:19:52;;;;;;;4.73;4.30;;;16.90;99.90;;;;;;4994708;28;20608;-70
2023/07/07 04:22:18;;;;;;;7.10;4.47;;;17.00;99.90;;;;;;4994629;28;20407;-70
2023/07/07 04:24:44;;;;;;;5.47;3.93;;;17.10;99.90;;;;;;4994001;28;20412;-70
2023/07/07 04:27:09;;;;;;;5.77;4.47;;;17.20;99.90;;;;;;4994011;28;20220;-70
2023/07/07 04:29:36;;;;;;;5.13;4.30;;;17.20;99.90;;;;;;4994338;28;20176;-70
2023/07/07 04:32:02;;;;;;;6.70;4.30;;;17.20;99.90;;;;;;4993998;28;20698;-70
2023/07/07 04:34:29;;;;;;;4.37;3.80;;;17.20;99.90;;;;;;4994453;28;20451;-70
2023/07/07 04:36:55;;;;;;;5.63;4.10;;;17.20;99.90;;;;;;4994227;28;20171;-70
2023/07/07 04:39:20;;;;;;;5.07;3.43;;;17.30;99.90;;;;;;4993367;28;20779;-70
2023/07/07 04:41:50;;;;;;;3.60;3.30;;;17.30;99.90;;;;;;4993947;28;20572;-71
2023/07/07 04:44:16;;;;;;;4.40;4.00;;;17.30;99.90;;;;;;4994063;28;20173;-70
2023/07/07 04:46:41;;;;;;;4.40;3.73;;;17.40;99.90;;;;;;4993819;28;20420;-70
2023/07/07 04:49:08;;;;;;;6.30;4.80;;;17.40;99.90;;;;;;4994301;28;20169;-70
2023/07/07 04:51:41;;;;;;;5.23;3.67;;;17.50;99.90;;;;;;4993400;28;20210;-70
2023/07/07 04:54:11;;;;;;;5.13;3.83;;;17.50;99.90;;;;;;4991924;28;20404;-70
2023/07/07 04:56:37;;;;;;;5.13;4.20;;;17.60;99.90;;;;;;4993995;28;20419;-69
2023/07/07 04:59:03;;;;;;;5.43;4.90;;;17.60;99.90;;;;;;4993427;28;20411;-70
2023/07/07 05:01:30;;;;;;;4.20;3.80;;;17.70;99.90;;;;;;4993733;28;20702;-70
2023/07/07 05:04:01;;;;;;;4.43;4.03;;;17.70;99.90;;;;;;4993922;28;20416;-70
2023/07/07 05:06:29;;;;;;;4.27;3.87;;;17.70;99.90;;;;;;4976312;28;20459;-70
2023/07/07 05:08:55;;;;;;;4.80;4.30;;;17.80;99.90;;;;;;4992286;28;20467;-70
2023/07/07 05:11:23;;;;;;;4.03;3.70;;;17.90;99.90;;;;;;4993517;28;20945;-70
2023/07/07 05:13:50;;;;;;;6.40;4.67;;;18.00;99.90;;;;;;4993973;28;20406;-70
2023/07/07 05:16:19;;;;;;;5.93;4.17;;;18.10;99.90;;;;;;4993977;28;20763;-68
2023/07/07 05:18:44;;;;;;;5.97;4.60;;;18.10;99.90;;;;;;4993729;28;20411;-70
2023/07/07 05:21:12;;;;;;;5.57;4.20;;;18.20;99.90;;;;;;4993467;28;20522;-71
2023/07/07 05:23:38;;;;;;;4.60;3.90;;;18.40;99.90;;;;;;4993389;28;20176;-71
2023/07/07 05:26:04;;;;;;;6.43;4.13;;;18.50;99.90;;;;;;4993293;28;20778;-70
2023/07/07 05:28:30;;;;;;;6.30;4.50;;;18.60;99.90;;;;;;4993460;28;20459;-70
2023/07/07 05:30:55;;;;;;;4.93;4.37;;;18.70;99.90;;;;;;4993542;28;20435;-70
2023/07/07 05:33:21;;;;;;;5.40;4.23;;;18.90;99.90;;;;;;4993614;28;20412;-70
2023/07/07 05:35:49;;;;;;;6.70;4.37;;;19.00;99.90;;;;;;4993329;28;20631;-70
2023/07/07 05:38:16;;;;;;;6.00;4.33;;;19.20;99.90;;;;;;4993309;28;20635;-70
2023/07/07 05:40:43;;;;;;;5.33;4.80;;;19.30;99.90;;;;;;4993048;28;20429;-71
2023/07/07 05:43:09;;;;;;;5.20;4.33;;;19.40;99.90;;;;;;4993333;28;20423;-71
2023/07/07 05:45:35;;;;;;;5.27;4.77;;;19.50;99.90;;;;;;4993247;28;20411;-71
2023/07/07 05:48:00;;;;;;;6.77;5.47;;;19.60;99.90;;;;;;4993816;28;20851;-71
2023/07/07 05:50:26;;;;;;;6.63;5.30;;;19.70;99.90;;;;;;4993236;28;20219;-69
2023/07/07 05:52:51;;;;;;;5.80;5.10;;;19.70;99.90;;;;;;4996762;28;20212;-69
2023/07/07 05:55:32;;;;;;;5.87;5.27;;;19.90;99.90;;;;;;4996502;28;20168;-70
2023/07/07 05:57:59;;;;;;;6.60;4.60;;;20.00;99.90;;;;;;4996666;28;20169;-70
2023/07/07 06:00:27;;;;;;;8.70;5.50;;;20.10;99.90;;;;;;4996632;28;20501;-69
2023/07/07 06:02:56;;;;;;;6.17;4.80;;;20.30;99.90;;;;;;4996298;28;20426;-70
2023/07/07 06:05:22;;;;;;;8.97;5.10;;;20.60;99.90;;;;;;4996593;28;20415;-70
2023/07/07 06:07:51;;;;;;;6.63;5.30;;;20.90;99.90;;;;;;4996945;28;20487;-70
2023/07/07 06:10:17;;;;;;;7.40;5.63;;;20.90;99.90;;;;;;4995458;28;20451;-69
2023/07/07 06:12:43;;;;;;;7.77;5.70;;;21.00;99.90;;;;;;4996856;28;20414;-70
2023/07/07 06:15:09;;;;;;;6.30;5.10;;;21.00;99.90;;;;;;4996432;28;20494;-70
2023/07/07 06:17:35;;;;;;;9.30;5.23;;;21.00;99.90;;;;;;4996309;28;20419;-70
2023/07/07 06:20:02;;;;;;;10.73;5.87;;;21.00;99.90;;;;;;4996548;28;20432;-70
2023/07/07 06:22:27;;;;;;;9.87;5.57;;;21.00;99.90;;;;;;4996229;28;20207;-71
2023/07/07 06:24:53;;;;;;;5.10;4.60;;;21.00;99.90;;;;;;4995901;28;20474;-71
2023/07/07 06:27:19;;;;;;;6.17;5.40;;;21.10;99.90;;;;;;4996262;28;20553;-71
2023/07/07 06:29:45;;;;;;;7.63;5.53;;;21.20;99.90;;;;;;4996042;28;20260;-70
2023/07/07 06:32:11;;;;;;;8.90;5.13;;;21.30;99.90;;;;;;4996111;28;20474;-70
2023/07/07 06:34:37;;;;;;;7.70;5.10;;;21.30;99.90;;;;;;4996209;28;20172;-70
2023/07/07 06:37:03;;;;;;;7.07;5.50;;;21.30;99.90;;;;;;4996173;28;20495;-70
2023/07/07 06:39:28;;;;;;;8.43;5.30;;;21.40;99.90;;;;;;4995294;28;20183;-70
2023/07/07 06:41:55;;;;;;;7.50;5.37;;;21.50;99.80;;;;;;4996191;28;20180;-69
2023/07/07 06:44:20;;;;;;;6.50;5.37;;;21.50;99.50;;;;;;4996254;28;20165;-70
2023/07/07 06:46:46;;;;;;;6.60;5.67;;;21.10;99.80;;;;;;4995576;28;20765;-70
2023/07/07 06:49:12;;;;;;;6.80;5.50;;;20.70;99.90;;;;;;4995755;28;20184;-70
2023/07/07 06:51:37;;;;;;;7.63;6.27;;;20.50;99.90;;;;;;4995349;28;20307;-70
2023/07/07 06:54:03;;;;;;;7.47;5.00;;;20.60;99.90;;;;;;4995538;28;20169;-70
2023/07/07 06:56:29;;;;;;;7.83;5.50;;;20.90;99.90;;;;;;4995142;28;20188;-71
2023/07/07 06:58:55;;;;;;;8.00;4.90;;;21.00;99.90;;;;;;4995934;28;20443;-70
2023/07/07 07:01:20;;;;;;;6.00;5.40;;;21.20;99.90;;;;;;4995544;28;20208;-70
2023/07/07 07:03:46;;;;;;;7.00;5.33;;;21.20;99.90;;;;;;4994281;28;20235;-69
2023/07/07 07:06:12;;;;;;;7.83;5.40;;;21.00;99.90;;;;;;4995682;28;20173;-69
2023/07/07 07:08:38;;;;;;;8.23;6.03;;;21.30;99.90;;;;;;4994454;28;21415;-70
2023/07/07 07:11:05;;;;;;;8.80;5.70;;;21.40;99.90;;;;;;4995177;28;20478;-70
2023/07/07 07:13:31;;;;;;;6.47;5.23;;;21.60;99.60;;;;;;4995235;28;20173;-71
2023/07/07 07:15:57;;;;;;;9.23;5.90;;;21.70;99.90;;;;;;4995502;28;20403;-71
2023/07/07 07:18:22;;;;;;;6.73;5.57;;;21.60;99.60;;;;;;4995493;28;20198;-71
2023/07/07 07:20:49;;;;;;;5.60;4.93;;;21.60;99.60;;;;;;4995453;28;20193;-70
2023/07/07 07:23:15;;;;;;;6.10;5.23;;;21.90;99.20;;;;;;4977488;28;20238;-70
2023/07/07 07:25:42;;;;;;;7.47;5.03;;;21.90;99.00;;;;;;4994948;28;20410;-69
2023/07/07 07:28:08;;;;;;;6.57;5.23;;;21.90;98.70;;;;;;4994874;28;20950;-72
2023/07/07 07:30:34;;;;;;;7.20;5.30;;;22.00;98.80;;;;;;4995048;28;20431;-72
2023/07/07 07:33:03;;;;;;;6.63;5.27;;;21.90;98.80;;;;;;4995551;28;20270;-70
2023/07/07 07:35:29;;;;;;;7.23;5.63;;;22.10;98.70;;;;;;4994614;28;20669;-71
2023/07/07 07:37:54;;;;;;;6.43;5.83;;;22.10;98.50;;;;;;4994985;28;20412;-69
2023/07/07 07:40:23;;;;;;;6.90;5.53;;;22.30;98.40;;;;;;4994175;28;20204;-72
2023/07/07 07:42:49;;;;;;;8.43;5.23;;;22.60;98.40;;;;;;4995552;28;20230;-71
2023/07/07 07:45:18;;;;;;;6.30;5.40;;;22.80;97.90;;;;;;4994884;28;20451;-71
2023/07/07 07:47:44;;;;;;;6.30;5.30;;;22.90;97.20;;;;;;4995035;28;20455;-71
2023/07/07 07:50:09;;;;;;;6.10;4.87;;;23.10;96.90;;;;;;4995072;28;20945;-72
2023/07/07 07:52:35;;;;;;;6.90;5.20;;;23.30;96.80;;;;;;4994747;28;20169;-70
2023/07/07 07:55:01;;;;;;;6.30;4.97;;;23.60;96.60;;;;;;4994296;28;20185;-70
2023/07/07 07:57:26;;;;;;;7.23;4.90;;;23.90;95.90;;;;;;4994596;28;20264;-70
2023/07/07 07:59:52;;;;;;;6.23;4.90;;;23.70;95.40;;;;;;4994494;28;20697;-71
2023/07/07 08:02:18;;;;;;;7.10;4.90;;;23.90;95.50;;;;;;4994618;28;20742;-70
2023/07/07 08:04:43;;;;;;;7.57;4.93;;;23.60;96.00;;;;;;4994824;28;20180;-70
2023/07/07 08:07:09;;;;;;;8.70;5.70;;;23.60;95.90;;;;;;4994232;28;20193;-71
2023/07/07 08:09:35;;;;;;;8.40;5.10;;;23.60;95.60;;;;;;4992930;28;20185;-71
2023/07/07 08:12:01;;;;;;;6.73;5.63;;;23.70;95.60;;;;;;4994171;28;20181;-72
2023/07/07 08:14:30;;;;;;;9.20;5.40;;;23.90;95.50;;;;;;4992811;28;20251;-72
2023/07/07 08:16:58;;;;;;;7.00;5.10;;;24.20;95.20;;;;;;4994003;28;20483;-71
2023/07/07 08:19:24;;;;;;;8.97;5.17;;;24.30;94.90;;;;;;4994176;28;20404;-72
2023/07/07 08:21:50;;;;;;;6.20;5.37;;;24.40;94.60;;;;;;4994162;28;20430;-71
2023/07/07 08:24:16;;;;;;;5.60;5.10;;;24.60;94.10;;;;;;4993734;28;20420;-71
2023/07/07 08:26:42;;;;;;;8.30;4.90;;;24.70;93.80;;;;;;4994273;28;20173;-71
2023/07/07 08:29:09;;;;;;;5.87;5.27;;;24.80;93.80;;;;;;4994111;28;20165;-71
2023/07/07 08:31:35;;;;;;;6.00;5.40;;;25.10;93.30;;;;;;4994011;28;20689;-72
2023/07/07 08:34:02;;;;;;;5.57;4.27;;;25.20;93.00;;;;;;4993914;28;20408;-71
2023/07/07 08:36:28;;;;;;;6.57;5.10;;;25.40;93.30;;;;;;4994220;28;20169;-72
2023/07/07 08:38:55;;;;;;;5.73;4.90;;;25.50;92.60;;;;;;4993834;28;20511;-71
2023/07/07 08:41:21;;;;;;;6.60;5.13;;;25.50;92.30;;;;;;4993664;28;20436;-71
2023/07/07 08:43:47;;;;;;;7.27;6.00;;;25.50;92.30;;;;;;4993879;28;20465;-72
2023/07/07 08:46:31;;;;;;;6.20;5.60;;;25.60;92.00;;;;;;4994129;28;20224;-71
2023/07/07 08:49:10;;;;;;;9.77;7.23;;;25.80;92.00;;;;;;4994085;28;20498;-71
2023/07/07 08:51:42;;;;;;;6.93;5.63;;;25.80;91.90;;;;;;4994130;28;20503;-72
2023/07/07 08:54:20;;;;;;;7.03;6.10;;;26.00;90.90;;;;;;4993503;28;20424;-71
2023/07/07 08:57:18;;;;;;;8.70;5.70;;;25.90;91.20;;;;;;4993823;28;20462;-72
2023/07/07 08:59:58;;;;;;;5.63;5.03;;;26.20;90.10;;;;;;4961026;28;20799;-72
2023/07/07 09:02:44;;;;;;;5.80;5.13;;;26.20;89.40;;;;;;4975843;28;20459;-70
2023/07/07 09:05:36;;;;;;;9.50;5.53;;;26.10;90.40;;;;;;4993634;28;20498;-71
2023/07/07 09:08:32;;;;;;;5.43;4.90;;;26.30;89.20;;;;;;4993963;28;20874;-72
2023/07/07 09:11:27;;;;;;;6.83;5.93;;;26.30;88.00;;;;;;4973946;28;20425;-72
2023/07/07 09:13:56;;;;;;;7.27;5.57;;;26.30;87.00;;;;;;4974188;28;20389;-70
2023/07/07 09:16:32;;;;;;;6.97;5.03;;;26.40;85.50;;;;;;4974085;28;20495;-70
2023/07/07 09:19:10;;;;;;;9.53;6.20;;;26.60;84.20;;;;;;4974431;28;20424;-69
2023/07/07 09:21:42;;;;;;;7.60;6.00;;;26.70;83.80;;;;;;4974569;28;20482;-71
2023/07/07 09:24:20;;;;;;;6.23;5.50;;;26.90;81.60;;;;;;4974319;28;20400;-70
2023/07/07 09:26:49;;;;;;;6.37;5.77;;;26.90;77.90;;;;;;4976409;28;20488;-71
2023/07/07 09:29:23;;;;;;;8.93;6.10;;;27.00;77.40;;;;;;4978119;28;20423;-69
2023/07/07 09:31:49;;;;;;;6.90;5.90;;;26.90;75.50;;;;;;4978057;28;20432;-70
2023/07/07 09:34:15;;;;;;;6.60;5.20;;;26.90;75.10;;;;;;4977887;28;20463;-70
2023/07/07 09:36:42;;;;;;;7.60;6.63;;;27.00;74.60;;;;;;4977842;28;20252;-71
2023/07/07 09:39:40;;;;;;;7.90;6.00;;;26.90;70.40;;;;;;4983759;28;20420;-71
2023/07/07 09:42:38;;;;;;;8.60;6.33;;;27.10;69.50;;;;;;4997284;28;20400;-71
2023/07/07 09:45:30;;;;;;;8.07;6.23;;;27.30;71.20;;;;;;4993057;28;20415;-71
2023/07/07 09:48:07;;;;;;;6.67;5.97;;;27.60;72.30;;;;;;4989317;28;20455;-71
2023/07/07 09:50:45;;;;;;;7.33;5.50;;;27.50;70.90;;;;;;4996732;28;20490;-71
2023/07/07 09:53:20;;;;;;;8.20;5.90;;;27.70;70.20;;;;;;4997941;28;20400;-71
2023/07/07 09:55:47;;;;;;;6.90;6.20;;;27.90;69.80;;;;;;4996656;28;20478;-71
2023/07/07 09:58:29;;;;;;;8.37;7.33;;;28.00;67.80;;;;;;4997276;28;20941;-69
2023/07/07 10:01:02;;;;;;;8.10;6.10;;;27.70;65.30;;;;;;4996563;28;20447;-71
2023/07/07 10:03:32;;;;;;;7.83;5.37;;;27.80;67.00;;;;;;4997206;28;20395;-71
2023/07/07 10:06:00;;;;;;;6.83;6.13;;;27.90;69.30;;;;;;4996777;28;20841;-71
2023/07/07 10:08:25;;;;;;;6.37;5.57;;;27.80;69.50;;;;;;4995719;28;20452;-71
2023/07/07 10:11:11;;;;;;;6.57;5.90;;;28.00;70.30;;;;;;4996052;28;20451;-71
2023/07/07 10:13:36;;;;;;;10.13;6.37;;;28.00;69.10;;;;;;4996351;28;20245;-71
2023/07/07 10:16:10;;;;;;;8.47;6.83;;;28.00;68.50;;;;;;4996701;28;20411;-72
2023/07/07 10:18:36;;;;;;;6.90;6.20;;;28.00;66.90;;;;;;4997124;28;20243;-70
2023/07/07 10:21:05;;;;;;;7.93;6.50;;;28.20;68.20;;;;;;4996626;28;20574;-70
2023/07/07 10:23:31;;;;;;;8.23;7.37;;;28.30;64.90;;;;;;4995556;28;20423;-71
2023/07/07 10:25:56;;;;;;;10.50;7.03;;;28.60;64.90;;;;;;4996228;28;20416;-71
2023/07/07 10:28:24;;;;;;;7.50;5.80;;;28.70;64.70;;;;;;4996304;28;20213;-72
2023/07/07 10:30:50;;;;;;;8.30;7.17;;;28.90;66.30;;;;;;4996596;28;20181;-71
2023/07/07 10:33:20;;;;;;;11.10;8.23;;;28.90;64.40;;;;;;4996291;28;20415;-71
2023/07/07 10:35:46;;;;;;;12.10;9.40;;;29.00;61.30;;;;;;4996282;28;20403;-71
2023/07/07 10:38:12;;;;;;;9.17;8.17;;;29.00;58.40;;;;;;4995641;28;20495;-72
2023/07/07 10:40:41;;;;;;;12.10;8.60;;;28.90;60.40;;;;;;4995566;28;20195;-72
2023/07/07 10:43:14;;;;;;;10.17;9.13;;;29.20;59.30;;;;;;4996017;28;20407;-69
2023/07/07 10:45:47;;;;;;;11.00;8.93;;;29.10;58.00;;;;;;4996354;28;20406;-70
2023/07/07 10:48:14;;;;;;;11.33;10.13;;;29.00;58.20;;;;;;4996256;28;20502;-71
2023/07/07 10:51:04;;;;;;;9.43;7.80;;;29.10;56.40;;;;;;4995887;28;20506;-71
2023/07/07 10:53:46;;;;;;;11.33;10.13;;;29.30;59.50;;;;;;4995803;28;20502;-72
2023/07/07 10:56:24;;;;;;;9.67;8.43;;;29.10;59.10;;;;;;4978134;28;20412;-71
2023/07/07 10:58:49;;;;;;;9.60;8.70;;;29.30;58.90;;;;;;4995973;28;20435;-71
2023/07/07 11:01:39;;;;;;;8.80;8.00;;;29.30;58.70;;;;;;4995509;28;20474;-72
2023/07/07 11:04:16;;;;;;;9.40;8.17;;;29.50;60.20;;;;;;4995404;28;20169;-72
2023/07/07 11:07:16;;;;;;;10.70;9.33;;;29.80;60.90;;;;;;4978015;28;20420;-72
2023/07/07 11:10:02;;;;;;;10.73;9.73;;;29.90;57.00;;;;;;4994188;28;20429;-71
2023/07/07 11:12:51;;;;;;;10.23;8.67;;;30.20;55.60;;;;;;4996011;28;20391;-71
2023/07/07 11:15:21;;;;;;;9.93;8.93;;;30.30;55.10;;;;;;4995879;28;20388;-72
2023/07/07 11:18:04;;;;;;;10.23;8.43;;;30.50;54.50;;;;;;4995614;28;20396;-71
2023/07/07 11:20:48;;;;;;;10.47;9.37;;;30.50;55.50;;;;;;4995800;28;20945;-71
2023/07/07 11:23:42;;;;;;;10.07;9.10;;;30.50;55.10;;;;;;4995611;28;20384;-71
2023/07/07 11:26:21;;;;;;;10.23;7.97;;;30.40;54.10;;;;;;4994958;28;20392;-71
2023/07/07 11:28:58;;;;;;;9.50;8.20;;;30.30;54.20;;;;;;4977656;28;20957;-71
2023/07/07 11:31:38;;;;;;;10.10;9.10;;;30.60;55.20;;;;;;4995475;28;20522;-71
2023/07/07 11:34:22;;;;;;;8.80;7.90;;;30.90;53.20;;;;;;4977777;28;20407;-71
2023/07/07 11:36:52;;;;;;;9.63;8.67;;;32.10;52.30;;;;;;4995142;28;20512;-72
2023/07/07 11:39:54;;;;;;;9.70;7.80;;;34.50;48.40;;;;;;4994837;28;20404;-72
2023/07/07 11:42:29;;;;;;;8.30;7.50;;;36.20;44.60;;;;;;4995091;28;20388;-72
2023/07/07 11:45:04;;;;;;;8.00;7.07;;;37.70;41.70;;;;;;4995116;28;20403;-72
2023/07/07 11:47:56;;;;;;;9.97;9.00;;;37.70;41.70;;;;;;4994820;28;20550;-72
2023/07/07 11:50:35;;;;;;;9.37;8.47;;;37.70;39.90;;;;;;4994473;28;20430;-72
2023/07/07 11:53:29;;;;;;;10.50;9.07;;;37.80;36.60;;;;;;4993701;28;20462;-70
2023/07/07 11:56:08;;;;;;;9.40;8.50;;;38.40;33.00;;;;;;4993169;28;20412;-71
2023/07/07 11:59:01;;;;;;;8.87;8.10;;;39.10;32.60;;;;;;4994436;28;20827;-72
2023/07/07 12:01:41;;;;;;;8.33;7.60;;;38.20;32.40;;;;;;4991998;28;20554;-70
2023/07/07 12:04:18;;;;;;;9.93;8.83;;;37.10;35.40;;;;;;4994863;28;20924;-71
2023/07/07 12:06:55;;;;;;;10.10;8.37;;;36.90;35.70;;;;;;4994197;28;20932;-72
2023/07/07 12:09:38;;;;;;;10.33;9.43;;;36.10;35.70;;;;;;4994067;28;20910;-70
2023/07/07 12:12:24;;;;;;;9.37;8.33;;;36.80;36.50;;;;;;4994489;28;20412;-73
2023/07/07 12:15:13;;;;;;;9.63;8.20;;;37.50;35.90;;;;;;4994675;28;20381;-70
2023/07/07 12:17:46;;;;;;;9.23;8.13;;;39.30;33.40;;;;;;4994913;28;20764;-71
2023/07/07 12:20:18;;;;;;;10.43;9.43;;;39.40;32.20;;;;;;4994508;28;20917;-71
2023/07/07 12:22:46;;;;;;;8.67;7.73;;;40.10;32.50;;;;;;4994207;28;20400;-71
2023/07/07 12:25:25;;;;;;;9.60;8.70;;;39.40;30.50;;;;;;4993663;28;20940;-70
2023/07/07 12:27:52;;;;;;;8.60;7.50;;;38.20;32.50;;;;;;4994252;28;20443;-71
2023/07/07 12:30:30;;;;;;;9.63;8.63;;;38.10;34.10;;;;;;4994111;28;20431;-71
2023/07/07 12:32:57;;;;;;;8.43;7.63;;;37.60;34.10;;;;;;4994295;28;20491;-70
2023/07/07 12:35:40;;;;;;;8.80;8.03;;;37.70;33.50;;;;;;4993979;28;20894;-68
2023/07/07 12:38:21;;;;;;;9.40;8.60;;;37.30;34.20;;;;;;4994527;28;20387;-71
2023/07/07 12:40:48;;;;;;;9.27;8.47;;;37.80;33.90;;;;;;4993371;28;20939;-71
2023/07/07 12:43:35;;;;;;;9.23;7.90;;;39.00;33.00;;;;;;4994036;28;20412;-70
2023/07/07 12:46:02;;;;;;;8.63;7.83;;;38.40;32.90;;;;;;4994196;28;20924;-71
2023/07/07 12:48:29;;;;;;;8.50;7.70;;;39.10;32.80;;;;;;4994125;28;20967;-71
2023/07/07 12:51:07;;;;;;;8.80;7.93;;;39.60;31.70;;;;;;4994144;28;20435;-71
2023/07/07 12:53:43;;;;;;;8.50;7.67;;;40.10;30.40;;;;;;4994159;28;20422;-71
2023/07/07 12:56:15;;;;;;;8.77;7.90;;;39.40;30.50;;;;;;4993747;28;20387;-71
2023/07/07 12:58:47;;;;;;;9.53;8.63;;;40.50;30.20;;;;;;4994064;28;20749;-71
2023/07/07 13:01:15;;;;;;;8.90;8.00;;;39.90;29.90;;;;;;4996332;28;20829;-71